METAR Data
IDs: Format: Raw Decoded Include TAF

Data at: 1505 UTC 18 Aug 2019

PALG 181356Z AUTO VRB03KT 8SM CLR 09/05 A3038 RMK AO2 SLP293 T00890050
PALG 181256Z AUTO 36005KT 10SM CLR 11/05 A3039 RMK AO2 SLP297 T01060050
PALG 181156Z AUTO 35005KT 10SM CLR 12/05 A3040 RMK AO2 SLP300 T01170050 10144 20117 58006
PALG 181056Z AUTO 01007KT 10SM CLR 12/06 A3041 RMK AO2 SLP302 T01220056
PALG 180956Z AUTO VRB06KT 10SM CLR 12/06 A3042 RMK AO2 SLP305 T01220061
PALG 180856Z AUTO 03007KT 360V060 10SM CLR 13/06 A3042 RMK AO2 SLP306 T01280061 401830083 58006
PALG 180756Z AUTO VRB03KT 10SM CLR 14/07 A3043 RMK AO2 SLP308 T01390067
PALG 180656Z AUTO VRB04KT 10SM CLR 14/07 A3043 RMK AO2 SLP310 T01390072
PALG 180556Z AUTO 01004KT 10SM CLR 14/08 A3044 RMK AO2 SLP312 T01440078 10183 20144 55003
PALG 180456Z AUTO VRB05KT 10SM CLR 17/08 A3044 RMK AO2 SLP311 T01670078
PALG 180356Z AUTO 03007KT 360V060 10SM CLR 18/08 A3044 RMK AO2 SLP314 T01780083
PALG 180256Z AUTO VRB05KT 10SM CLR 18/07 A3044 RMK AO2 SLP314 T01780072 56013
PALG 180156Z AUTO 36008KT 330V030 10SM CLR 18/08 A3045 RMK AO2 SLP316 T01780078
PALG 180056Z AUTO VRB04KT 10SM CLR 17/08 A3047 RMK AO2 SLP322 T01720083
PALG 172356Z AUTO VRB06KT 10SM CLR 16/08 A3048 RMK AO2 SLP327 T01610078 10161 20106 58011
PALG 172256Z AUTO VRB05KT 10SM CLR 15/07 A3050 RMK AO2 SLP332 T01500072
PALG 172156Z AUTO 02007KT 8SM CLR 14/07 A3051 RMK AO2 SLP337 T01440067
PALG 172056Z AUTO VRB05KT 10SM CLR 14/07 A3051 RMK AO2 SLP338 T01390067 51003
PALG 171956Z AUTO VRB05KT 10SM CLR 13/07 A3051 RMK AO2 SLP337 T01330072
PALG 171856Z AUTO 02004KT 10SM CLR 12/08 A3052 RMK AO2 SLP340 T01220078
PALG 171756Z AUTO VRB04KT 10SM CLR 11/07 A3050 RMK AO2 SLP335 T01110067 10117 20083 51005
PALG 171656Z AUTO 00000KT 10SM CLR 09/07 A3050 RMK AO2 SLP334 T00940072
PALG 171556Z AUTO 00000KT 10SM CLR 08/07 A3049 RMK AO2 SLP331 T00830067
PALG 171456Z AUTO VRB05KT 10SM CLR 09/07 A3049 RMK AO2 SLP330 T00890067 51006
PALG 171356Z AUTO 36003KT 10SM CLR 09/08 A3049 RMK AO2 SLP330 T00940078
PALG 171256Z AUTO VRB04KT 10SM BKN110 10/09 A3048 RMK AO2 SLP327 T01000089
PALG 171156Z AUTO 21003KT 10SM OVC100 11/09 A3047 RMK AO2 SLP324 60000 70006 T01110094 10139 20111 53004
PALG 171056Z AUTO 00000KT 10SM BKN036 OVC100 12/09 A3046 RMK AO2 SLP321 T01170089
PALG 171046Z AUTO 00000KT 10SM SCT025 OVC034 12/09 A3046 RMK AO2
PALG 171015Z AUTO VRB05KT 10SM SCT010 OVC018 13/12 A3046 RMK AO2
PALG 170956Z AUTO VRB03KT 10SM BKN012 OVC033 14/13 A3046 RMK AO2 SLP319 T01390128
PALG 170936Z AUTO 00000KT 10SM SCT010 BKN033 OVC100 14/13 A3046 RMK AO2
PALG 170908Z AUTO 00000KT 10SM FEW004 OVC010 14/13 A3046 RMK AO2 CIG 006V012
PALG 170856Z AUTO 00000KT 10SM BKN004 OVC010 14/13 A3046 RMK AO2 CIG 003V007 SLP319 60000 T01390133 401440128 53007
PALG 170849Z AUTO 00000KT 10SM BKN004 OVC010 13/13 A3045 RMK AO2 CIG 003V007
PALG 170842Z AUTO 00000KT 10SM SCT004 OVC010 13/13 A3045 RMK AO2 CIG 006V013
PALG 170708Z AUTO 00000KT 10SM BKN004 OVC039 14/14 A3044 RMK AO2
PALG 170656Z AUTO 00000KT 10SM SCT004 BKN025 OVC037 14/13 A3044 RMK AO2 RAE06 SLP311 P0000 T01390133
PALG 170652Z AUTO 00000KT 10SM BKN004 BKN025 OVC035 14/14 A3044 RMK AO2 RAE06 P0000
PALG 170556Z AUTO VRB04KT 3SM -RA BR SCT006 OVC015 14/14 A3044 RMK AO2 SLP312 P0001 60006 T01390139 10144 20139 56005
PALG 170527Z AUTO 25004KT 2 1/2SM -RA BR BKN006 BKN020 OVC025 14/14 A3044 RMK AO2 CIG 004V013 P0000
PALG 170507Z AUTO 25004KT 7SM OVC006 14/14 A3044 RMK AO2 RAE01 CIG 004V010 P0000
PALG 170456Z AUTO 25006KT 5SM -RA BR OVC004 14/14 A3044 RMK AO2 CIG 004V008 SLP313 P0001 T01440139
PALG 170436Z AUTO 25005KT 2 1/2SM -RA BR OVC004 14/14 A3044 RMK AO2 P0001
PALG 170419Z AUTO 24004KT 1 1/2SM -RA BR OVC004 14/14 A3044 RMK AO2 P0000
PALG 170407Z AUTO 24004KT 2 1/2SM -RA BR OVC004 14/14 A3044 RMK AO2 P0000
PALG 170356Z AUTO 25004KT 1 1/2SM -RA BR OVC004 14/14 A3045 RMK AO2 SLP316 P0001 T01440139
PALG 170346Z AUTO 26005KT 1 3/4SM -RA BR BKN004 BKN008 OVC014 14/14 A3045 RMK AO2 P0001
PALG 170330Z AUTO 25006KT 2 1/2SM -RA BR BKN006 OVC014 14/14 A3045 RMK AO2 CIG 004V009 P0001
PALG 170319Z AUTO 26005KT 1 3/4SM -RA BR BKN006 OVC014 14/14 A3046 RMK AO2 CIG 004V009 P0000